AirNav   Air Wisconsin Up To $57,000 Bonus
 
 1560 users online  

2OK7 Cole Landing Area Airport
Newcastle, Oklahoma, USA

GOING TO NEWCASTLE?


FAA INFORMATION EFFECTIVE 03 NOVEMBER 2022

Location

FAA Identifier: 2OK7
Lat/Long: 35-15-30.2290N 097-39-46.1420W
35-15.503817N 097-39.769033W
35.2583969,-97.6628172
(estimated)
Elevation: 1353 ft. / 412.4 m (surveyed)
Variation: 07E (1985)
From city: 3 miles W of NEWCASTLE, OK
Time zone: UTC -6 (UTC -5 during Daylight Saving Time)
Zip code: 73065

Airport Operations

Airport use: Private use. Permission required prior to landing
Activation date: 09/1971
Control tower: no
ARTCC: FORT WORTH CENTER
FSS: MC ALESTER FLIGHT SERVICE STATION
Attendance: UNATNDD
Wind indicator: yes
Segmented circle: no

Airport Communications

CTAF: 122.9
WX ASOS at OKC (9 nm N): PHONE 405-686-4711
WX AWOS-3 at OUN (9 nm E): 119.55 (405-325-7302)
WX AWOS-3 at RCE (16 nm NW): 125.05 (405-354-2617)
WX ASOS at PWA (17 nm N): PHONE 405-798-2013
WX AWOS-3 at CHK (18 nm SW): 118.175 (405-574-1016)

Nearby radio navigation aids

VOR radial/distance  VOR name  Freq  Var
IRWr197/6.6WILL ROGERS VORTAC114.1007E
PWAr175/16.5WILEY POST VOR/DME113.4008E

 
NDB name  Hdg/Dist  Freq  Var  ID
GALLY234/4.235005ERG .-. --.

Airport Services

Airframe service: NONE
Powerplant service: NONE

Runway Information

Runway 18/36

Dimensions: 2500 x 150 ft. / 762 x 46 m
Surface: turf
RUNWAY 18  RUNWAY 36
Traffic pattern: leftleft
Obstructions: roadtower, marked and lighted

Airport Ownership and Management from official FAA records

Ownership: Privately-owned
Owner: RYAN AND JENNIFER SMITH
1430 REDBUD LN
NEWCASTLE, OK 73065
Phone 405-229-7612
Manager: COLE AIRPARK MAINTENANCE CORP
1121 N HWY 76
NEWCASTLE, OK 73055
Phone 405-517-6121

Airport Operational Statistics

Aircraft based on the field: 13
Single engine airplanes: 13
    

Additional Remarks

UNLGTD TWR 3000 FT SOUTH OF AER RWY 36 AND 200 FT EAST OF CNTRLN.
FOR CD CTC OKE CITY APCH AT 405-681-5683.
DAY OPS ONLY: NO OPS BTN LCL EVE CIVIL TWI TO LCL MORNING CIVIL TWI
PVT ARPT. USE AT OWN RISK. HOMES AND HANGERS LOCATED ON W SIDE OF RWY. ROADWAY AND 6 FT CHAIN LINK FENCE NORTH OF RWY 17
COM TWR LOCATED SOUTH AND EAST OF RUNWAY 35-246 FT HIGH 3425 FT SE OF EOR. BEWARE OF WILDLIFE; TURKEYS AND DEER ARE FREQUENTLY ON OR NEAR THE RWY.

Instrument Procedures

There are no published instrument procedures at 2OK7.

Some nearby airports with instrument procedures:

KOKC - Will Rogers World Airport (9 nm N)
KOUN - University of Oklahoma Westheimer Airport (9 nm E)
1K4 - David Jay Perry Airport (11 nm SE)
KRCE - Clarence E Page Municipal Airport (16 nm NW)
KTIK - Tinker Air Force Base (16 nm NE)
KPWA - Wiley Post Airport (17 nm N)
KCHK - Chickasha Municipal Airport (18 nm SW)
 
Loc | Ops | Rwys | IFR | FBO | Links
Com | Nav | Svcs | Stats | Notes
Area around 2OK7 (Cole Landing Area Airport)
 
Road maps at: MapQuest Bing Google
 
Aerial photo
No photo
 
Sectional chart

 
Airport distance calculator
Flying to Cole Landing Area Airport? Find the distance to fly.

From to 2OK7

Sunrise and sunset
Times for 29-Nov-2022
 Local
(UTC-6)
 Zulu
(UTC)
Morning civil twilight06:5212:52
Sunrise07:2013:20
Sunset17:1823:18
Evening civil twilight17:4623:46

Current date and time
Zulu (UTC)  29-Nov-2022 18:43:45
Local (UTC-6)  29-Nov-2022 12:43:45
 
METAR
KOKC 
8nm N 
291752Z 27014KT 10SM FEW038 18/07 A2967 RMK AO2 SLP041 T01780072 10178 20111 51018
KOUN 
11nm E 
291750Z 20012G21KT 10SM CLR 19/08 A2965
KRCE 
16nm NW 
291815Z AUTO 33018KT 10SM CLR 12/04 A2969 RMK AO2
KPWA 
17nm N 
291753Z 31014KT 10SM CLR 17/01 A2968
KTIK 
17nm NE 
291755Z AUTO 26014G21KT 10SM CLR 18/05 A2963 RMK AO2 SLP035 T01830052 10188 20116 52015 $
KCHK 
18nm SW 
291810Z AUTO 28016KT 10SM CLR 19/04 A2966 RMK AO2 T01940037
TAF
KOKC 
8nm N 
291726Z 2918/3018 26017G24KT P6SM SKC FM292000 34018G27KT P6SM SCT090 TEMPO 3000/3003 34025G32KT FM300800 35014KT P6SM SKC FM300900 35010KT P6SM SKC
KOUN 
11nm E 
291726Z 2918/3018 24017G24KT P6SM SKC FM292000 34018G27KT P6SM SCT090 TEMPO 3000/3003 34025G31KT FM300800 35014KT P6SM SKC FM300900 35010KT P6SM SKC
KTIK 
17nm NE 
291000Z 2910/3016 17012G20KT 9999 SCT250 WS020/21050KT QNH2955INS BECMG 2914/2915 21015G25KT 9999 BKN250 510053 QNH2957INS BECMG 2923/2924 33020G30KT 9999 BKN200 510053 QNH2971INS BECMG 3005/3006 35012G20KT 9999 FEW150 510023 QNH3015INS TX19/2920Z TN02/3007Z
NOTAMs
Click for the latest NOTAMs
NOTAMs are issued by the DoD/FAA and will open in a separate window not controlled by AirNav.

 

 
 

Would you like to see your business listed on this page?

 If your business provides an interesting product or service to pilots, flight crews, aircraft, or users of the Cole Landing Area Airport, you should consider listing it here.  To start the listing process, click on the button below
 
Add a business
 

Other Pages about Cole Landing Area Airport

Update a link
 
Copyright © AirNav, LLC. All rights reserved. Privacy Policy  Contact